Time;durP1;ratioP1;P1;durP2;ratioP2;P2;SDS_P1;SDS_P2;PMS_P1;PMS_P2;Temp;Humidity;BMP_temperature;BMP_pressure;BME280_temperature;BME280_humidity;BME280_pressure;Samples;Min_cycle;Max_cycle;Signal;HPM_P1;HPM_P2
2022/01/14 00:00:49;;;;;;;41.03;37.17;;;0.50;92.90;;;;;;5033529;28;20717;-72
2022/01/14 00:03:16;;;;;;;41.85;37.67;;;0.40;93.00;;;;;;5033896;28;20205;-73
2022/01/14 00:05:43;;;;;;;40.92;36.92;;;0.40;92.90;;;;;;5033173;28;20753;-72
2022/01/14 00:08:10;;;;;;;42.40;38.20;;;0.40;93.00;;;;;;5033869;28;20208;-72
2022/01/14 00:10:36;;;;;;;41.03;36.88;;;0.40;93.00;;;;;;5033440;28;20213;-72
2022/01/14 00:13:14;;;;;;;40.92;37.20;;;0.40;93.10;;;;;;5033712;28;20626;-72
2022/01/14 00:15:42;;;;;;;41.45;37.45;;;0.50;92.90;;;;;;5033604;28;20632;-72
2022/01/14 00:18:09;;;;;;;380.05;81.07;;;0.50;92.80;;;;;;5033618;28;20197;-72
2022/01/14 00:20:36;;;;;;;1999.90;529.03;;;0.50;93.10;;;;;;5033467;28;20253;-72
2022/01/14 00:23:03;;;;;;;40.20;36.17;;;0.50;99.00;;;;;;5033311;28;20267;-71
2022/01/14 00:33:44;;;;;;;42.10;38.25;;;0.70;97.80;;;;;;5033402;28;20199;-72
2022/01/14 00:36:11;;;;;;;41.95;37.97;;;0.60;96.50;;;;;;5033163;28;20634;-72
2022/01/14 00:38:38;;;;;;;44.03;39.42;;;0.70;95.90;;;;;;5033271;28;20201;-72
2022/01/14 00:41:05;;;;;;;42.15;38.15;;;0.70;95.00;;;;;;5033126;28;20223;-72
2022/01/14 00:43:32;;;;;;;77.82;41.45;;;0.80;94.90;;;;;;5033103;28;20212;-72
2022/01/14 00:46:00;;;;;;;42.20;37.70;;;0.80;94.90;;;;;;5033154;28;20284;-72
2022/01/14 00:48:27;;;;;;;41.95;37.85;;;0.80;95.30;;;;;;5032942;28;20205;-72
2022/01/14 00:50:54;;;;;;;358.25;74.97;;;0.80;96.40;;;;;;5032846;28;20222;-72
2022/01/14 00:53:21;;;;;;;929.90;149.88;;;0.80;98.60;;;;;;5032954;28;20201;-72
2022/01/14 00:55:55;;;;;;;84.05;41.95;;;0.80;98.30;;;;;;5032568;28;20217;-72
2022/01/14 01:01:08;;;;;;;44.38;40.28;;;0.70;97.50;;;;;;5032614;28;20669;-71
2022/01/14 01:03:35;;;;;;;42.45;38.50;;;0.80;97.00;;;;;;5032845;28;20201;-72
2022/01/14 01:06:02;;;;;;;42.08;38.00;;;0.80;96.50;;;;;;5032718;28;20194;-71
2022/01/14 01:08:31;;;;;;;42.42;38.45;;;0.90;95.70;;;;;;5032745;28;20566;-72
2022/01/14 01:10:58;;;;;;;44.75;40.22;;;0.80;94.90;;;;;;5032564;28;20252;-72
2022/01/14 01:13:28;;;;;;;97.13;41.75;;;0.80;94.50;;;;;;5032514;28;20205;-72
2022/01/14 01:15:56;;;;;;;41.95;37.35;;;0.90;95.00;;;;;;5031653;28;20312;-72
2022/01/14 01:18:24;;;;;;;41.35;37.03;;;0.90;94.40;;;;;;5032621;28;20227;-72
2022/01/14 01:20:52;;;;;;;41.38;37.17;;;0.90;93.60;;;;;;5032469;28;20219;-72
2022/01/14 01:23:20;;;;;;;41.20;37.40;;;1.00;94.70;;;;;;5032642;28;20208;-72
2022/01/14 01:25:52;;;;;;;45.45;37.50;;;0.90;93.40;;;;;;5032469;28;20193;-71
2022/01/14 01:28:18;;;;;;;40.80;36.90;;;0.90;93.10;;;;;;5032636;28;20197;-71
2022/01/14 01:31:04;;;;;;;42.05;37.92;;;0.90;92.80;;;;;;5032364;28;20219;-72
2022/01/14 01:33:33;;;;;;;40.35;36.40;;;0.80;92.70;;;;;;5032524;28;20208;-72
2022/01/14 01:36:00;;;;;;;41.60;37.10;;;0.80;92.60;;;;;;5032205;28;20231;-72
2022/01/14 01:38:27;;;;;;;1999.90;644.30;;;0.80;93.10;;;;;;5032294;28;20429;-71
2022/01/14 01:40:54;;;;;;;707.03;123.10;;;0.90;94.80;;;;;;5032214;28;20217;-71
2022/01/14 01:43:25;;;;;;;42.45;38.35;;;0.90;99.60;;;;;;5032484;28;20219;-71
2022/01/14 01:45:54;;;;;;;42.33;38.13;;;0.90;99.90;;;;;;5032347;28;20245;-72
2022/01/14 01:48:22;;;;;;;42.97;38.70;;;0.90;98.30;;;;;;5032223;28;20555;-72
2022/01/14 01:50:50;;;;;;;41.88;37.38;;;0.80;96.60;;;;;;5032148;28;20221;-72
2022/01/14 01:53:17;;;;;;;40.40;36.58;;;0.80;95.80;;;;;;5032404;28;20211;-72
2022/01/14 01:55:44;;;;;;;452.90;80.55;;;0.80;95.60;;;;;;5031930;28;20233;-72
2022/01/14 01:58:11;;;;;;;42.15;37.97;;;0.70;95.30;;;;;;5032214;28;20197;-72
2022/01/14 02:00:38;;;;;;;44.20;39.47;;;0.80;95.30;;;;;;5031915;28;20221;-72
2022/01/14 02:03:05;;;;;;;41.78;37.55;;;0.80;94.80;;;;;;5032083;28;20560;-71
2022/01/14 02:05:32;;;;;;;40.47;36.83;;;0.70;93.40;;;;;;5032223;28;20194;-72
2022/01/14 02:08:00;;;;;;;39.33;35.38;;;0.70;93.50;;;;;;5032170;28;20208;-72
2022/01/14 02:10:27;;;;;;;40.78;36.70;;;0.70;93.40;;;;;;5032055;28;20229;-72
2022/01/14 02:12:54;;;;;;;40.08;36.33;;;0.70;92.90;;;;;;5032208;28;20204;-72
2022/01/14 02:15:30;;;;;;;39.55;35.85;;;0.60;92.60;;;;;;5031982;28;20284;-72
2022/01/14 02:18:27;;;;;;;39.08;35.38;;;0.60;92.80;;;;;;5032063;28;20205;-71
2022/01/14 02:23:44;;;;;;;40.00;36.30;;;0.50;92.40;;;;;;5032060;28;20209;-71
2022/01/14 02:26:11;;;;;;;40.60;36.88;;;0.50;92.10;;;;;;5032010;28;20691;-72
2022/01/14 02:28:38;;;;;;;41.03;36.92;;;0.40;92.30;;;;;;5034556;28;20193;-71
2022/01/14 02:31:05;;;;;;;42.08;37.55;;;0.40;92.40;;;;;;5035449;28;20217;-71
2022/01/14 02:33:32;;;;;;;40.58;36.97;;;0.40;97.20;;;;;;5035602;28;20194;-72
2022/01/14 02:36:01;;;;;;;41.40;37.08;;;0.40;95.60;;;;;;5035370;28;20308;-72
2022/01/14 02:38:28;;;;;;;41.15;37.15;;;0.40;94.80;;;;;;5035353;28;20219;-72
2022/01/14 02:40:55;;;;;;;41.10;37.10;;;0.30;94.00;;;;;;5035173;28;20582;-72
2022/01/14 02:43:22;;;;;;;41.13;37.08;;;0.30;93.60;;;;;;5035377;28;20205;-72
2022/01/14 02:45:52;;;;;;;40.55;36.95;;;0.30;93.50;;;;;;5035471;28;20189;-72
2022/01/14 02:48:22;;;;;;;42.55;38.53;;;0.30;93.30;;;;;;5035555;28;20209;-72
2022/01/14 02:50:56;;;;;;;44.90;40.40;;;0.30;94.40;;;;;;5034976;28;20698;-71
2022/01/14 02:53:29;;;;;;;644.35;113.18;;;0.50;93.60;;;;;;5035160;28;20570;-72
2022/01/14 02:55:58;;;;;;;50.90;41.35;;;0.40;93.40;;;;;;5034870;28;20682;-72
2022/01/14 02:58:27;;;;;;;864.25;131.73;;;0.40;97.70;;;;;;5035047;28;20204;-71
2022/01/14 03:00:54;;;;;;;651.08;113.65;;;0.40;97.70;;;;;;5034771;28;20220;-71
2022/01/14 03:03:25;;;;;;;45.88;41.17;;;0.40;98.70;;;;;;5034930;28;20197;-71
2022/01/14 03:05:52;;;;;;;46.05;41.47;;;0.40;97.30;;;;;;5034944;28;20711;-72
2022/01/14 03:08:20;;;;;;;43.45;39.42;;;0.50;96.50;;;;;;5034852;28;20196;-72
2022/01/14 03:10:53;;;;;;;44.35;40.15;;;0.50;95.70;;;;;;5034740;28;20227;-72
2022/01/14 03:13:21;;;;;;;59.15;41.05;;;0.50;94.60;;;;;;5034912;28;20201;-71
2022/01/14 03:15:48;;;;;;;1174.03;191.32;;;0.50;94.60;;;;;;5034640;28;20573;-72
2022/01/14 03:18:17;;;;;;;45.13;40.70;;;0.50;95.90;;;;;;5034841;28;20201;-71
2022/01/14 03:20:50;;;;;;;53.80;41.47;;;0.50;95.40;;;;;;5034520;28;20221;-71
2022/01/14 03:23:18;;;;;;;147.50;51.90;;;0.60;95.00;;;;;;5034766;28;20201;-71
2022/01/14 03:25:52;;;;;;;500.70;101.28;;;0.60;95.60;;;;;;5034647;28;20197;-71
2022/01/14 03:28:22;;;;;;;44.10;39.72;;;0.50;95.30;;;;;;5034568;28;20204;-71
2022/01/14 03:30:51;;;;;;;44.85;40.70;;;0.50;94.80;;;;;;5034386;28;20623;-71
2022/01/14 03:33:19;;;;;;;42.53;38.50;;;0.50;93.90;;;;;;5034605;28;20221;-71
2022/01/14 03:35:46;;;;;;;41.15;37.15;;;0.50;93.40;;;;;;5034585;28;20570;-71
2022/01/14 03:38:13;;;;;;;532.38;97.47;;;0.50;92.60;;;;;;5034318;28;20197;-71
2022/01/14 03:40:40;;;;;;;129.73;48.35;;;0.60;93.20;;;;;;5033455;28;20225;-71
2022/01/14 03:43:07;;;;;;;46.13;41.38;;;0.50;93.10;;;;;;5034038;28;20209;-71
2022/01/14 03:45:35;;;;;;;45.72;41.35;;;0.50;94.20;;;;;;5034240;28;20197;-71
2022/01/14 03:48:02;;;;;;;42.42;38.17;;;0.40;95.80;;;;;;5034159;28;20201;-71
2022/01/14 03:50:29;;;;;;;46.78;41.80;;;0.50;95.00;;;;;;5033972;28;20221;-71
2022/01/14 03:52:56;;;;;;;45.83;41.35;;;0.50;94.10;;;;;;5034274;28;20239;-71
2022/01/14 03:55:22;;;;;;;42.20;37.90;;;0.60;93.50;;;;;;5033876;28;20224;-71
2022/01/14 03:57:49;;;;;;;44.03;39.72;;;0.50;93.10;;;;;;5034194;28;20224;-71
2022/01/14 04:00:17;;;;;;;44.13;39.70;;;0.50;92.60;;;;;;5033614;28;20227;-71
2022/01/14 04:02:47;;;;;;;41.65;37.60;;;0.50;92.40;;;;;;5033912;28;20208;-71
2022/01/14 04:05:14;;;;;;;1395.97;214.27;;;0.50;92.90;;;;;;5033948;28;20193;-71
2022/01/14 04:07:42;;;;;;;1923.53;342.98;;;0.50;95.30;;;;;;5033750;28;20193;-71
2022/01/14 04:10:11;;;;;;;47.72;42.65;;;0.40;96.30;;;;;;5033420;28;20217;-71
2022/01/14 04:12:50;;;;;;;634.38;113.22;;;0.50;98.60;;;;;;5033664;28;20315;-71
2022/01/14 04:18:04;;;;;;;41.80;37.92;;;0.50;99.20;;;;;;5033623;28;20232;-71
2022/01/14 04:20:32;;;;;;;44.97;40.83;;;0.50;97.70;;;;;;5033175;28;20217;-71
2022/01/14 04:22:59;;;;;;;44.55;40.17;;;0.50;96.70;;;;;;5033618;28;20531;-72
2022/01/14 04:25:26;;;;;;;644.53;117.30;;;0.50;95.60;;;;;;5033412;28;20201;-71
2022/01/14 04:27:53;;;;;;;44.85;40.47;;;0.40;95.00;;;;;;5033469;28;20550;-71
2022/01/14 04:30:20;;;;;;;114.40;49.00;;;0.40;97.70;;;;;;5033152;28;20213;-71
2022/01/14 04:32:47;;;;;;;48.63;40.47;;;0.40;98.10;;;;;;5033351;28;20291;-71
2022/01/14 04:35:16;;;;;;;47.03;42.58;;;0.40;98.30;;;;;;5033156;28;20207;-72
2022/01/14 04:37:43;;;;;;;51.85;41.78;;;0.40;98.20;;;;;;5033060;28;20217;-71
2022/01/14 04:40:12;;;;;;;829.42;139.05;;;0.40;98.30;;;;;;5033092;28;20273;-71
2022/01/14 04:42:41;;;;;;;49.63;40.85;;;0.40;98.00;;;;;;5033056;28;20314;-71
2022/01/14 04:45:09;;;;;;;45.95;41.25;;;0.50;97.50;;;;;;5033185;28;20194;-71
2022/01/14 04:47:44;;;;;;;44.08;40.22;;;0.60;96.10;;;;;;5032969;28;20196;-72
2022/01/14 04:50:12;;;;;;;43.45;38.88;;;0.60;94.30;;;;;;5032594;28;20224;-71
2022/01/14 04:52:41;;;;;;;42.95;39.08;;;0.50;93.60;;;;;;5033362;28;20208;-72
2022/01/14 04:55:10;;;;;;;42.75;38.75;;;0.50;93.40;;;;;;5032815;28;20197;-71
2022/01/14 04:57:37;;;;;;;181.98;56.20;;;0.40;93.50;;;;;;5033022;28;20217;-71
2022/01/14 05:00:06;;;;;;;44.65;40.25;;;0.50;94.10;;;;;;5032279;28;20223;-71
2022/01/14 05:02:32;;;;;;;42.45;38.35;;;0.50;94.10;;;;;;5032919;28;20205;-72
2022/01/14 05:05:00;;;;;;;293.67;65.10;;;0.40;93.60;;;;;;5032915;28;20228;-71
2022/01/14 05:07:27;;;;;;;43.95;39.88;;;0.40;93.50;;;;;;5032924;28;20236;-71
2022/01/14 05:10:15;;;;;;;42.58;39.00;;;0.40;95.50;;;;;;5032583;28;20309;-71
2022/01/14 05:12:42;;;;;;;42.70;38.60;;;0.40;94.40;;;;;;5032668;28;20663;-71
2022/01/14 05:15:10;;;;;;;43.28;39.10;;;0.40;93.40;;;;;;5032524;28;20197;-71
2022/01/14 05:17:38;;;;;;;1423.68;209.25;;;0.40;92.80;;;;;;5032595;28;20218;-71
2022/01/14 05:20:06;;;;;;;1419.53;232.48;;;0.40;92.60;;;;;;5032597;28;20635;-71
2022/01/14 05:22:33;;;;;;;151.77;49.70;;;0.40;94.00;;;;;;5032605;28;20197;-72
2022/01/14 05:25:02;;;;;;;264.17;61.83;;;0.30;94.00;;;;;;5032487;28;20208;-71
2022/01/14 05:27:28;;;;;;;41.53;37.47;;;0.30;96.20;;;;;;5032523;28;20287;-72
2022/01/14 05:29:55;;;;;;;43.75;39.20;;;0.30;99.00;;;;;;5032310;28;20304;-71
2022/01/14 05:32:23;;;;;;;42.28;38.17;;;0.30;97.90;;;;;;5032570;28;20199;-71
2022/01/14 05:34:50;;;;;;;41.83;37.65;;;0.30;99.00;;;;;;5032426;28;20205;-71
2022/01/14 05:37:17;;;;;;;42.50;38.40;;;0.30;97.30;;;;;;5032398;28;20304;-71
2022/01/14 05:39:44;;;;;;;39.58;36.13;;;0.30;96.30;;;;;;5032001;28;20730;-71
2022/01/14 05:42:12;;;;;;;40.58;37.00;;;0.30;95.40;;;;;;5032318;28;20209;-71
2022/01/14 05:44:39;;;;;;;68.35;38.83;;;0.30;94.70;;;;;;5032444;28;20207;-71
2022/01/14 05:47:06;;;;;;;39.40;35.97;;;0.30;94.50;;;;;;5032296;28;20200;-71
2022/01/14 05:49:33;;;;;;;39.10;35.60;;;0.30;95.20;;;;;;5032084;28;20217;-71
2022/01/14 05:52:01;;;;;;;40.17;36.65;;;0.30;94.50;;;;;;5032373;28;20692;-71
2022/01/14 05:54:28;;;;;;;39.78;36.28;;;0.30;93.10;;;;;;5032240;28;20197;-71
2022/01/14 05:56:55;;;;;;;41.42;38.00;;;0.20;92.50;;;;;;5032207;28;20223;-71
2022/01/14 05:59:23;;;;;;;39.00;35.70;;;0.20;92.20;;;;;;5031829;28;20642;-71
2022/01/14 06:01:50;;;;;;;41.83;38.20;;;0.20;92.40;;;;;;5032201;28;20199;-72
2022/01/14 06:04:17;;;;;;;40.33;36.83;;;0.30;91.80;;;;;;5036137;28;20291;-72
2022/01/14 06:06:44;;;;;;;37.97;34.72;;;0.20;91.50;;;;;;5036025;28;20544;-72
2022/01/14 06:09:11;;;;;;;36.28;33.30;;;0.10;91.80;;;;;;5035763;28;20303;-72
2022/01/14 06:11:37;;;;;;;38.83;35.50;;;0.10;91.70;;;;;;5035999;28;20203;-72
2022/01/14 06:14:04;;;;;;;927.15;139.88;;;0.10;91.60;;;;;;5035907;28;20197;-72
2022/01/14 06:16:33;;;;;;;629.35;166.43;;;0.10;92.80;;;;;;5035741;28;20200;-72
2022/01/14 06:18:59;;;;;;;59.78;39.05;;;0.10;94.20;;;;;;5035785;28;20201;-72
2022/01/14 06:21:26;;;;;;;511.55;90.20;;;0.10;96.20;;;;;;5035648;28;20689;-72
2022/01/14 06:23:54;;;;;;;1963.00;312.45;;;0.20;95.20;;;;;;5035697;28;20197;-72
2022/01/14 06:26:21;;;;;;;43.17;39.33;;;0.30;94.50;;;;;;5035774;28;20233;-72
2022/01/14 06:28:48;;;;;;;42.40;38.30;;;0.20;94.00;;;;;;5035635;28;20197;-72
2022/01/14 06:31:15;;;;;;;43.03;39.17;;;0.10;93.80;;;;;;5035486;28;20706;-72
2022/01/14 06:33:43;;;;;;;41.35;37.88;;;0.10;92.80;;;;;;5035596;28;20653;-72
2022/01/14 06:36:10;;;;;;;42.80;38.35;;;0.10;92.40;;;;;;5035473;28;20193;-71
2022/01/14 06:38:37;;;;;;;38.05;34.60;;;0.20;92.00;;;;;;5035442;28;20221;-72
2022/01/14 06:41:04;;;;;;;39.78;36.10;;;0.20;91.90;;;;;;5035329;28;20217;-72
2022/01/14 06:43:31;;;;;;;41.17;37.38;;;0.20;91.80;;;;;;5035196;28;20616;-71
2022/01/14 06:45:58;;;;;;;40.53;36.83;;;0.20;92.90;;;;;;5035428;28;20232;-72
2022/01/14 06:48:25;;;;;;;39.97;36.55;;;0.20;92.60;;;;;;5035275;28;20215;-71
2022/01/14 06:50:54;;;;;;;308.98;67.90;;;0.10;93.40;;;;;;5034940;28;20721;-71
2022/01/14 06:53:22;;;;;;;39.55;36.08;;;0.10;93.50;;;;;;5035184;28;20203;-71
2022/01/14 06:55:49;;;;;;;39.00;35.10;;;0.20;93.10;;;;;;5034888;28;20544;-72
2022/01/14 06:58:15;;;;;;;41.00;37.47;;;0.30;91.50;;;;;;5035042;28;20309;-71
2022/01/14 07:00:42;;;;;;;38.05;34.88;;;0.20;95.40;;;;;;5034757;28;20564;-73
2022/01/14 07:03:09;;;;;;;897.25;139.02;;;0.30;94.10;;;;;;5035144;28;20821;-71
2022/01/14 07:05:36;;;;;;;78.70;40.75;;;0.20;93.10;;;;;;5034965;28;20224;-71
2022/01/14 07:08:05;;;;;;;40.67;36.88;;;0.20;97.10;;;;;;5035026;28;20212;-71
2022/01/14 07:10:36;;;;;;;40.55;37.00;;;0.30;95.50;;;;;;5034658;28;20222;-71
2022/01/14 07:13:04;;;;;;;37.78;34.58;;;0.30;93.80;;;;;;5035009;28;20551;-71
2022/01/14 07:15:31;;;;;;;40.38;36.83;;;0.20;93.40;;;;;;5034855;28;20201;-71
2022/01/14 07:17:58;;;;;;;38.03;34.70;;;0.20;93.00;;;;;;5034699;28;20221;-71
2022/01/14 07:20:25;;;;;;;37.65;34.53;;;0.20;92.70;;;;;;5034594;28;20224;-71
2022/01/14 07:22:52;;;;;;;35.50;32.40;;;0.30;91.50;;;;;;5034657;28;20197;-71
2022/01/14 07:25:20;;;;;;;40.08;36.67;;;0.20;92.00;;;;;;5034676;28;20204;-71
2022/01/14 07:27:47;;;;;;;37.28;34.00;;;0.20;90.90;;;;;;5034442;28;20190;-71
2022/01/14 07:30:15;;;;;;;38.47;34.85;;;0.20;90.70;;;;;;5034327;28;20224;-71
2022/01/14 07:32:42;;;;;;;39.63;36.22;;;0.20;90.70;;;;;;5034509;28;20197;-71
2022/01/14 07:35:10;;;;;;;38.67;35.17;;;0.20;91.30;;;;;;5034323;28;20204;-71
2022/01/14 07:37:37;;;;;;;40.55;37.17;;;0.20;93.10;;;;;;5034366;28;20223;-71
2022/01/14 07:40:05;;;;;;;38.53;35.20;;;0.30;92.80;;;;;;5034031;28;20228;-71
2022/01/14 07:42:34;;;;;;;39.83;36.22;;;0.30;92.20;;;;;;5034178;28;20216;-71
2022/01/14 07:45:01;;;;;;;41.53;37.88;;;0.40;91.70;;;;;;5034191;28;20566;-71
2022/01/14 07:47:28;;;;;;;39.15;35.75;;;0.50;91.40;;;;;;5034228;28;20193;-71
2022/01/14 07:49:55;;;;;;;43.35;38.38;;;0.50;91.10;;;;;;5033854;28;20237;-71
2022/01/14 07:52:22;;;;;;;39.83;35.92;;;0.50;91.10;;;;;;5034239;28;20223;-71
2022/01/14 07:54:49;;;;;;;37.97;34.33;;;0.60;92.00;;;;;;5033956;28;20205;-71
2022/01/14 07:57:16;;;;;;;39.17;35.67;;;0.60;91.40;;;;;;5034000;28;20201;-71
2022/01/14 07:59:44;;;;;;;36.53;33.17;;;0.70;91.00;;;;;;5033446;28;20224;-71
2022/01/14 08:02:12;;;;;;;40.33;36.78;;;0.80;91.10;;;;;;5034099;28;20220;-71
2022/01/14 08:04:40;;;;;;;40.58;37.13;;;0.80;91.00;;;;;;5033892;28;20642;-71
2022/01/14 08:07:11;;;;;;;40.92;37.33;;;0.90;90.40;;;;;;5033890;28;20198;-71
2022/01/14 08:09:40;;;;;;;37.72;34.42;;;1.00;89.40;;;;;;5033696;28;20583;-71
2022/01/14 08:12:09;;;;;;;38.80;35.55;;;1.00;88.70;;;;;;5033861;28;20201;-71
2022/01/14 08:14:36;;;;;;;38.15;34.50;;;1.00;87.90;;;;;;5033834;28;20193;-72
2022/01/14 08:17:06;;;;;;;39.97;36.63;;;1.00;87.80;;;;;;5033670;28;20199;-71
2022/01/14 08:19:33;;;;;;;38.13;34.85;;;0.90;87.60;;;;;;5033456;28;20300;-72
2022/01/14 08:22:02;;;;;;;1302.82;207.40;;;1.00;87.80;;;;;;5033609;28;20208;-72
2022/01/14 08:24:29;;;;;;;38.67;35.45;;;0.90;89.10;;;;;;5033325;28;20193;-71
2022/01/14 08:26:56;;;;;;;1999.90;601.20;;;1.00;89.10;;;;;;5033008;28;20755;-71
2022/01/14 08:29:23;;;;;;;185.38;52.75;;;0.90;92.80;;;;;;5033223;28;20209;-71
2022/01/14 08:31:51;;;;;;;171.70;46.75;;;0.90;98.40;;;;;;5033435;28;20193;-71
2022/01/14 08:34:19;;;;;;;1999.90;702.17;;;0.90;98.20;;;;;;5033540;28;20198;-71
2022/01/14 08:36:47;;;;;;;450.23;85.05;;;1.00;99.10;;;;;;5033107;28;20219;-71
2022/01/14 08:39:14;;;;;;;388.38;76.70;;;1.10;98.70;;;;;;5032844;28;20217;-71
2022/01/14 08:41:41;;;;;;;41.58;38.00;;;1.10;97.00;;;;;;5033324;28;20252;-71
2022/01/14 08:44:08;;;;;;;39.95;36.28;;;1.20;96.30;;;;;;5032941;28;20664;-71
2022/01/14 08:46:35;;;;;;;39.60;35.88;;;1.30;95.30;;;;;;5033185;28;20197;-71
2022/01/14 08:49:02;;;;;;;38.80;35.40;;;1.40;94.10;;;;;;5032879;28;20578;-71
2022/01/14 08:51:30;;;;;;;40.00;36.40;;;1.40;92.80;;;;;;5032857;28;20201;-71
2022/01/14 08:54:02;;;;;;;39.65;35.95;;;1.50;92.20;;;;;;5033050;28;20193;-72
2022/01/14 08:56:29;;;;;;;37.15;34.13;;;1.70;91.00;;;;;;5032777;28;20236;-72
2022/01/14 08:58:56;;;;;;;39.75;35.55;;;1.70;89.90;;;;;;5032734;28;20217;-72
2022/01/14 09:01:23;;;;;;;119.00;39.30;;;1.80;89.90;;;;;;5032760;28;20211;-72
2022/01/14 09:03:50;;;;;;;40.08;36.67;;;1.90;90.60;;;;;;5032882;28;20204;-72
2022/01/14 09:06:17;;;;;;;37.90;34.22;;;2.00;89.60;;;;;;5032938;28;20781;-72
2022/01/14 09:08:45;;;;;;;37.60;34.40;;;2.10;89.00;;;;;;5032943;28;20197;-71
2022/01/14 09:11:12;;;;;;;38.95;35.33;;;2.10;88.10;;;;;;5032803;28;20706;-72
2022/01/14 09:13:39;;;;;;;39.63;36.13;;;2.10;86.20;;;;;;5032949;28;20197;-72
2022/01/14 09:16:06;;;;;;;38.90;35.60;;;2.00;85.40;;;;;;5032685;28;20774;-71
2022/01/14 09:18:33;;;;;;;1644.32;226.40;;;2.10;85.80;;;;;;5032482;28;20221;-72
2022/01/14 09:21:00;;;;;;;768.20;116.60;;;2.20;87.80;;;;;;5032566;28;20232;-73
2022/01/14 09:23:28;;;;;;;1999.90;345.05;;;2.30;90.00;;;;;;5032849;28;20701;-72
2022/01/14 09:25:57;;;;;;;41.13;37.83;;;2.40;93.70;;;;;;5032819;28;20197;-72
2022/01/14 09:28:24;;;;;;;42.70;39.15;;;2.40;93.60;;;;;;5032427;28;20219;-72
2022/01/14 09:30:51;;;;;;;38.17;34.88;;;2.50;91.60;;;;;;5032348;28;20378;-72
2022/01/14 09:33:18;;;;;;;38.45;35.22;;;2.50;90.50;;;;;;5032463;28;20659;-72
2022/01/14 09:35:46;;;;;;;37.15;34.00;;;2.60;89.00;;;;;;5032520;28;20272;-72
2022/01/14 09:38:13;;;;;;;37.90;34.95;;;2.60;85.50;;;;;;5034586;28;20309;-72
2022/01/14 09:40:44;;;;;;;36.85;34.05;;;2.60;84.30;;;;;;5036370;28;20232;-72
2022/01/14 09:43:14;;;;;;;40.17;37.05;;;2.60;83.30;;;;;;5036557;28;20205;-72
2022/01/14 09:45:42;;;;;;;37.65;34.85;;;2.70;83.30;;;;;;5036598;28;20681;-73
2022/01/14 09:48:08;;;;;;;37.40;34.35;;;2.70;83.20;;;;;;5036398;28;20203;-72
2022/01/14 09:50:35;;;;;;;35.88;33.05;;;2.90;83.20;;;;;;5036273;28;20232;-72
2022/01/14 09:53:02;;;;;;;35.65;32.75;;;3.00;82.80;;;;;;5036670;28;20203;-72
2022/01/14 09:55:30;;;;;;;36.80;33.50;;;3.10;82.60;;;;;;5036365;28;20208;-72
2022/01/14 09:57:57;;;;;;;37.70;34.60;;;3.30;82.30;;;;;;5036468;28;20193;-72
2022/01/14 10:00:26;;;;;;;34.45;31.83;;;3.40;81.60;;;;;;5035934;28;20225;-72
2022/01/14 10:02:53;;;;;;;36.05;33.55;;;3.50;81.00;;;;;;5036485;28;20196;-72
2022/01/14 10:05:35;;;;;;;35.20;32.42;;;3.50;80.90;;;;;;5036303;28;20566;-72
2022/01/14 10:08:17;;;;;;;35.22;32.50;;;3.70;80.60;;;;;;5036156;28;20223;-72
2022/01/14 10:10:47;;;;;;;35.20;32.60;;;3.70;80.20;;;;;;5035757;28;20221;-72
2022/01/14 10:13:16;;;;;;;33.70;30.90;;;3.80;79.80;;;;;;5036141;28;20261;-72
2022/01/14 10:15:46;;;;;;;33.08;30.27;;;3.90;79.50;;;;;;5035986;28;20193;-72
2022/01/14 10:18:15;;;;;;;32.80;30.20;;;4.00;79.30;;;;;;5035864;28;20229;-72
2022/01/14 10:20:42;;;;;;;32.50;30.20;;;4.00;79.10;;;;;;5035632;28;20217;-72
2022/01/14 10:23:12;;;;;;;32.08;29.80;;;4.10;78.80;;;;;;5035608;28;20200;-72
2022/01/14 10:25:40;;;;;;;32.88;30.38;;;4.10;77.60;;;;;;5036007;28;20544;-72
2022/01/14 10:28:18;;;;;;;33.65;31.10;;;4.20;77.40;;;;;;5035783;28;20197;-72
2022/01/14 10:30:47;;;;;;;32.38;30.02;;;4.30;77.30;;;;;;5035416;28;20217;-72
2022/01/14 10:33:18;;;;;;;35.10;32.25;;;4.40;77.00;;;;;;5035646;28;20197;-73
2022/01/14 10:35:46;;;;;;;37.47;34.55;;;4.50;76.80;;;;;;5035499;28;20223;-73
2022/01/14 10:38:16;;;;;;;34.75;32.00;;;4.50;76.20;;;;;;5035534;28;20254;-73
2022/01/14 10:40:45;;;;;;;35.30;32.50;;;4.60;76.10;;;;;;5035237;28;20765;-72
2022/01/14 10:43:16;;;;;;;34.50;32.00;;;4.60;75.80;;;;;;5035458;28;20574;-72
2022/01/14 10:45:44;;;;;;;35.03;32.20;;;4.70;75.80;;;;;;5035394;28;20557;-72
2022/01/14 10:48:16;;;;;;;32.20;29.50;;;4.80;75.70;;;;;;5034889;28;20209;-72
2022/01/14 10:50:45;;;;;;;36.63;34.03;;;4.90;75.60;;;;;;5035049;28;20221;-72
2022/01/14 10:53:15;;;;;;;36.58;33.72;;;4.90;75.40;;;;;;5035343;28;20229;-72
2022/01/14 10:55:44;;;;;;;37.75;34.92;;;4.90;74.80;;;;;;5035316;28;20610;-72
2022/01/14 10:58:14;;;;;;;37.25;34.22;;;5.00;75.30;;;;;;5035070;28;20622;-73
2022/01/14 11:00:44;;;;;;;39.65;36.45;;;5.10;75.00;;;;;;5034704;28;20225;-72
2022/01/14 11:03:13;;;;;;;38.33;35.33;;;5.10;74.90;;;;;;5035131;28;20197;-72
2022/01/14 11:05:41;;;;;;;45.15;41.30;;;5.20;74.60;;;;;;5035027;28;20385;-72
2022/01/14 11:08:08;;;;;;;41.17;37.95;;;5.20;74.50;;;;;;5035000;28;20255;-72
2022/01/14 11:10:38;;;;;;;41.17;37.70;;;5.20;74.30;;;;;;5034757;28;20221;-72
2022/01/14 11:13:07;;;;;;;41.40;38.00;;;5.30;74.10;;;;;;5034825;28;20197;-72
2022/01/14 11:15:35;;;;;;;44.55;40.78;;;5.30;74.60;;;;;;5034831;28;20208;-73
2022/01/14 11:18:05;;;;;;;44.72;40.70;;;5.40;74.40;;;;;;5034872;28;20201;-73
2022/01/14 11:23:14;;;;;;;40.97;37.38;;;5.50;73.40;;;;;;5034419;28;20236;-72
2022/01/14 11:23:22;;;;;;;43.10;39.42;;;5.50;73.30;;;;;;5034629;28;20209;-72
2022/01/14 11:26:00;;;;;;;44.20;40.30;;;5.50;73.80;;;;;;5034635;28;20206;-72
2022/01/14 11:28:30;;;;;;;41.83;38.17;;;5.50;73.70;;;;;;5034642;28;20448;-72
2022/01/14 11:30:58;;;;;;;43.25;39.40;;;5.60;73.90;;;;;;5034447;28;20724;-72
2022/01/14 11:33:42;;;;;;;41.53;38.08;;;5.60;73.80;;;;;;5034760;28;20762;-73
2022/01/14 11:36:11;;;;;;;42.53;39.05;;;5.70;75.10;;;;;;5034443;28;20284;-72
2022/01/14 11:38:43;;;;;;;41.63;38.25;;;5.80;74.80;;;;;;5034247;28;20217;-72
2022/01/14 11:41:12;;;;;;;46.15;42.50;;;5.80;73.70;;;;;;5034259;28;20217;-72
2022/01/14 11:43:45;;;;;;;42.92;39.20;;;5.80;73.20;;;;;;5034359;28;20563;-72
2022/01/14 11:46:16;;;;;;;44.13;40.13;;;5.90;72.90;;;;;;5034341;28;20200;-73
2022/01/14 11:48:47;;;;;;;43.35;39.80;;;6.00;72.70;;;;;;5034156;28;20263;-72
2022/01/14 11:51:17;;;;;;;43.88;39.97;;;6.10;72.80;;;;;;5034070;28;20260;-72
2022/01/14 11:53:50;;;;;;;41.92;38.33;;;6.10;72.60;;;;;;5034157;28;20201;-72
2022/01/14 11:56:53;;;;;;;43.80;39.80;;;6.20;72.50;;;;;;5033887;28;20304;-72
2022/01/14 11:59:46;;;;;;;43.35;39.83;;;6.20;72.10;;;;;;5033481;28;20231;-72
2022/01/14 12:02:38;;;;;;;44.35;40.67;;;6.30;71.90;;;;;;5033871;28;20200;-72
2022/01/14 12:05:13;;;;;;;45.33;41.63;;;6.40;72.00;;;;;;5033838;28;20232;-72
2022/01/14 12:08:23;;;;;;;43.50;39.88;;;6.50;73.90;;;;;;5033999;28;20211;-73
2022/01/14 12:11:20;;;;;;;43.33;39.53;;;6.60;76.50;;;;;;5033608;28;20225;-72
2022/01/14 12:13:59;;;;;;;41.97;38.28;;;6.70;74.70;;;;;;5025943;28;20545;-72
2022/01/14 12:16:49;;;;;;;42.75;39.17;;;6.80;73.50;;;;;;5033749;28;20654;-72
2022/01/14 12:19:20;;;;;;;45.53;41.40;;;6.80;72.30;;;;;;5033334;28;20225;-73
2022/01/14 12:22:06;;;;;;;44.00;40.35;;;6.90;71.60;;;;;;5033659;28;20208;-72
2022/01/14 12:24:39;;;;;;;43.42;39.72;;;6.90;71.50;;;;;;5033632;28;20244;-73
2022/01/14 12:30:28;;;;;;;42.30;38.88;;;7.10;71.50;;;;;;5032897;28;20239;-72
2022/01/14 12:32:56;;;;;;;42.72;39.05;;;7.10;71.00;;;;;;5033547;28;20284;-73
2022/01/14 12:35:35;;;;;;;44.53;41.15;;;7.10;70.60;;;;;;5033230;28;20199;-72
2022/01/14 12:38:03;;;;;;;43.60;40.13;;;7.20;70.50;;;;;;5033533;28;20291;-73
2022/01/14 12:40:37;;;;;;;43.92;40.10;;;7.30;70.30;;;;;;5032844;28;20225;-72
2022/01/14 12:43:06;;;;;;;44.67;40.80;;;7.30;70.40;;;;;;5033195;28;20207;-73
2022/01/14 12:45:38;;;;;;;45.15;41.20;;;7.30;70.70;;;;;;5033135;28;20209;-73
2022/01/14 12:48:39;;;;;;;44.65;40.90;;;7.40;70.20;;;;;;5033180;28;20671;-72
2022/01/14 12:51:09;;;;;;;43.97;39.97;;;7.40;72.30;;;;;;5032679;28;20241;-72
2022/01/14 12:53:36;;;;;;;46.38;42.50;;;7.40;70.50;;;;;;5033057;28;20645;-73
2022/01/14 12:56:14;;;;;;;43.42;39.65;;;7.50;70.70;;;;;;5032707;28;20301;-72
2022/01/14 12:58:55;;;;;;;45.60;41.08;;;7.60;69.40;;;;;;5032876;28;20197;-73
2022/01/14 13:01:28;;;;;;;44.30;40.60;;;7.70;68.30;;;;;;5032666;28;20203;-72
2022/01/14 13:03:57;;;;;;;43.88;40.22;;;7.60;67.80;;;;;;5033216;28;20198;-72